sensor_id;sensor_type;location;lat;lon;timestamp;P1;durP1;ratioP1;P2;durP2;ratioP2
10353;SDS011;5223;50.924;13.338;2022-10-17T00:00:59;1.50;;;1.50;;
10353;SDS011;5223;50.924;13.338;2022-10-17T00:03:26;1.00;;;1.00;;
10353;SDS011;5223;50.924;13.338;2022-10-17T00:05:53;0.90;;;0.90;;
10353;SDS011;5223;50.924;13.338;2022-10-17T00:08:19;0.80;;;0.80;;
10353;SDS011;5223;50.924;13.338;2022-10-17T00:10:55;1.10;;;1.10;;
10353;SDS011;5223;50.924;13.338;2022-10-17T00:13:23;0.80;;;0.80;;
10353;SDS011;5223;50.924;13.338;2022-10-17T00:15:50;0.80;;;0.80;;
10353;SDS011;5223;50.924;13.338;2022-10-17T00:18:17;0.90;;;0.90;;
10353;SDS011;5223;50.924;13.338;2022-10-17T00:20:43;1.67;;;1.35;;
10353;SDS011;5223;50.924;13.338;2022-10-17T00:23:10;1.10;;;1.10;;
10353;SDS011;5223;50.924;13.338;2022-10-17T00:25:39;0.90;;;0.90;;
10353;SDS011;5223;50.924;13.338;2022-10-17T00:28:09;0.98;;;0.98;;
10353;SDS011;5223;50.924;13.338;2022-10-17T00:30:42;1.10;;;1.10;;
10353;SDS011;5223;50.924;13.338;2022-10-17T00:33:08;1.33;;;1.33;;
10353;SDS011;5223;50.924;13.338;2022-10-17T00:35:35;0.80;;;0.80;;
10353;SDS011;5223;50.924;13.338;2022-10-17T00:38:02;1.05;;;1.05;;
10353;SDS011;5223;50.924;13.338;2022-10-17T00:40:29;0.88;;;0.88;;
10353;SDS011;5223;50.924;13.338;2022-10-17T00:42:55;1.10;;;1.10;;
10353;SDS011;5223;50.924;13.338;2022-10-17T00:45:24;0.73;;;0.73;;
10353;SDS011;5223;50.924;13.338;2022-10-17T00:48:01;1.10;;;1.10;;
10353;SDS011;5223;50.924;13.338;2022-10-17T00:50:32;0.95;;;0.95;;
10353;SDS011;5223;50.924;13.338;2022-10-17T00:53:00;0.82;;;0.82;;
10353;SDS011;5223;50.924;13.338;2022-10-17T00:55:31;1.45;;;1.45;;
10353;SDS011;5223;50.924;13.338;2022-10-17T00:58:00;0.90;;;0.90;;
10353;SDS011;5223;50.924;13.338;2022-10-17T01:00:31;0.70;;;0.70;;
10353;SDS011;5223;50.924;13.338;2022-10-17T01:03:01;0.88;;;0.88;;
10353;SDS011;5223;50.924;13.338;2022-10-17T01:05:28;1.20;;;1.20;;
10353;SDS011;5223;50.924;13.338;2022-10-17T01:07:55;0.80;;;0.80;;
10353;SDS011;5223;50.924;13.338;2022-10-17T01:10:23;0.70;;;0.70;;
10353;SDS011;5223;50.924;13.338;2022-10-17T01:12:56;0.85;;;0.85;;
10353;SDS011;5223;50.924;13.338;2022-10-17T01:15:35;0.80;;;0.80;;
10353;SDS011;5223;50.924;13.338;2022-10-17T01:18:14;1.00;;;1.00;;
10353;SDS011;5223;50.924;13.338;2022-10-17T01:21:09;0.90;;;0.90;;
10353;SDS011;5223;50.924;13.338;2022-10-17T01:23:57;0.80;;;0.80;;
10353;SDS011;5223;50.924;13.338;2022-10-17T01:26:43;0.90;;;0.90;;
10353;SDS011;5223;50.924;13.338;2022-10-17T01:29:32;0.80;;;0.80;;
10353;SDS011;5223;50.924;13.338;2022-10-17T01:32:14;0.90;;;0.90;;
10353;SDS011;5223;50.924;13.338;2022-10-17T01:34:44;0.80;;;0.80;;
10353;SDS011;5223;50.924;13.338;2022-10-17T01:37:18;0.80;;;0.80;;
10353;SDS011;5223;50.924;13.338;2022-10-17T01:39:51;0.80;;;0.80;;
10353;SDS011;5223;50.924;13.338;2022-10-17T01:42:23;0.70;;;0.70;;
10353;SDS011;5223;50.924;13.338;2022-10-17T01:44:58;0.90;;;0.90;;
10353;SDS011;5223;50.924;13.338;2022-10-17T01:47:31;0.80;;;0.80;;
10353;SDS011;5223;50.924;13.338;2022-10-17T01:50:00;0.80;;;0.80;;
10353;SDS011;5223;50.924;13.338;2022-10-17T01:52:32;0.70;;;0.70;;
10353;SDS011;5223;50.924;13.338;2022-10-17T01:55:05;0.80;;;0.80;;
10353;SDS011;5223;50.924;13.338;2022-10-17T01:57:35;0.90;;;0.90;;
10353;SDS011;5223;50.924;13.338;2022-10-17T02:00:07;0.80;;;0.80;;
10353;SDS011;5223;50.924;13.338;2022-10-17T02:02:40;0.90;;;0.90;;
10353;SDS011;5223;50.924;13.338;2022-10-17T02:05:09;0.70;;;0.70;;
10353;SDS011;5223;50.924;13.338;2022-10-17T02:07:36;0.70;;;0.70;;
10353;SDS011;5223;50.924;13.338;2022-10-17T02:10:03;0.80;;;0.80;;
10353;SDS011;5223;50.924;13.338;2022-10-17T02:12:40;0.90;;;0.90;;
10353;SDS011;5223;50.924;13.338;2022-10-17T02:15:21;0.80;;;0.80;;
10353;SDS011;5223;50.924;13.338;2022-10-17T02:17:59;0.80;;;0.80;;
10353;SDS011;5223;50.924;13.338;2022-10-17T02:20:43;0.80;;;0.80;;
10353;SDS011;5223;50.924;13.338;2022-10-17T02:23:17;0.73;;;0.73;;
10353;SDS011;5223;50.924;13.338;2022-10-17T02:25:50;0.77;;;0.77;;
10353;SDS011;5223;50.924;13.338;2022-10-17T02:28:25;0.75;;;0.75;;
10353;SDS011;5223;50.924;13.338;2022-10-17T02:30:57;0.80;;;0.80;;
10353;SDS011;5223;50.924;13.338;2022-10-17T02:33:29;0.80;;;0.80;;
10353;SDS011;5223;50.924;13.338;2022-10-17T02:36:01;0.80;;;0.80;;
10353;SDS011;5223;50.924;13.338;2022-10-17T02:38:33;0.80;;;0.80;;
10353;SDS011;5223;50.924;13.338;2022-10-17T02:41:01;0.80;;;0.80;;
10353;SDS011;5223;50.924;13.338;2022-10-17T02:43:28;0.70;;;0.70;;
10353;SDS011;5223;50.924;13.338;2022-10-17T02:45:56;0.70;;;0.70;;
10353;SDS011;5223;50.924;13.338;2022-10-17T02:48:23;0.85;;;0.85;;
10353;SDS011;5223;50.924;13.338;2022-10-17T02:51:00;0.70;;;0.70;;
10353;SDS011;5223;50.924;13.338;2022-10-17T02:53:35;0.80;;;0.80;;
10353;SDS011;5223;50.924;13.338;2022-10-17T02:56:11;0.70;;;0.70;;
10353;SDS011;5223;50.924;13.338;2022-10-17T02:58:42;1.83;;;1.77;;
10353;SDS011;5223;50.924;13.338;2022-10-17T03:01:13;0.80;;;0.80;;
10353;SDS011;5223;50.924;13.338;2022-10-17T03:03:40;0.70;;;0.70;;
10353;SDS011;5223;50.924;13.338;2022-10-17T03:06:08;0.80;;;0.80;;
10353;SDS011;5223;50.924;13.338;2022-10-17T03:08:35;0.80;;;0.80;;
10353;SDS011;5223;50.924;13.338;2022-10-17T03:11:02;0.90;;;0.90;;
10353;SDS011;5223;50.924;13.338;2022-10-17T03:13:29;0.80;;;0.80;;
10353;SDS011;5223;50.924;13.338;2022-10-17T03:15:56;2.97;;;2.88;;
10353;SDS011;5223;50.924;13.338;2022-10-17T03:18:23;0.93;;;0.93;;
10353;SDS011;5223;50.924;13.338;2022-10-17T03:20:50;1.00;;;1.00;;
10353;SDS011;5223;50.924;13.338;2022-10-17T03:23:18;0.70;;;0.70;;
10353;SDS011;5223;50.924;13.338;2022-10-17T03:25:44;1.63;;;1.35;;
10353;SDS011;5223;50.924;13.338;2022-10-17T03:28:11;0.60;;;0.60;;
10353;SDS011;5223;50.924;13.338;2022-10-17T03:30:38;0.70;;;0.70;;
10353;SDS011;5223;50.924;13.338;2022-10-17T03:33:05;0.90;;;0.90;;
10353;SDS011;5223;50.924;13.338;2022-10-17T03:35:32;0.80;;;0.80;;
10353;SDS011;5223;50.924;13.338;2022-10-17T03:37:58;1.20;;;1.20;;
10353;SDS011;5223;50.924;13.338;2022-10-17T03:40:27;1.30;;;1.27;;
10353;SDS011;5223;50.924;13.338;2022-10-17T03:42:53;0.80;;;0.80;;
10353;SDS011;5223;50.924;13.338;2022-10-17T03:45:21;1.42;;;1.20;;
10353;SDS011;5223;50.924;13.338;2022-10-17T03:47:47;1.48;;;1.48;;
10353;SDS011;5223;50.924;13.338;2022-10-17T03:50:14;0.90;;;0.90;;
10353;SDS011;5223;50.924;13.338;2022-10-17T03:52:41;0.80;;;0.80;;
10353;SDS011;5223;50.924;13.338;2022-10-17T03:55:11;0.90;;;0.90;;
10353;SDS011;5223;50.924;13.338;2022-10-17T03:57:39;0.90;;;0.90;;
10353;SDS011;5223;50.924;13.338;2022-10-17T04:00:07;0.85;;;0.85;;
10353;SDS011;5223;50.924;13.338;2022-10-17T04:02:37;0.90;;;0.90;;
10353;SDS011;5223;50.924;13.338;2022-10-17T04:05:04;0.80;;;0.80;;
10353;SDS011;5223;50.924;13.338;2022-10-17T04:07:32;0.80;;;0.80;;
10353;SDS011;5223;50.924;13.338;2022-10-17T04:10:00;0.80;;;0.80;;
10353;SDS011;5223;50.924;13.338;2022-10-17T04:12:27;1.90;;;1.80;;
10353;SDS011;5223;50.924;13.338;2022-10-17T04:14:55;0.90;;;0.90;;
10353;SDS011;5223;50.924;13.338;2022-10-17T04:17:21;0.90;;;0.90;;
10353;SDS011;5223;50.924;13.338;2022-10-17T04:19:48;0.88;;;0.88;;
10353;SDS011;5223;50.924;13.338;2022-10-17T04:22:15;0.90;;;0.90;;
10353;SDS011;5223;50.924;13.338;2022-10-17T04:24:42;0.80;;;0.80;;
10353;SDS011;5223;50.924;13.338;2022-10-17T04:27:11;0.98;;;0.98;;
10353;SDS011;5223;50.924;13.338;2022-10-17T04:29:38;1.00;;;1.00;;
10353;SDS011;5223;50.924;13.338;2022-10-17T04:32:10;0.90;;;0.90;;
10353;SDS011;5223;50.924;13.338;2022-10-17T04:34:37;0.90;;;0.90;;
10353;SDS011;5223;50.924;13.338;2022-10-17T04:37:04;0.90;;;0.90;;
10353;SDS011;5223;50.924;13.338;2022-10-17T04:39:31;0.82;;;0.82;;
10353;SDS011;5223;50.924;13.338;2022-10-17T04:41:57;0.80;;;0.80;;
10353;SDS011;5223;50.924;13.338;2022-10-17T04:44:24;0.90;;;0.90;;
10353;SDS011;5223;50.924;13.338;2022-10-17T04:46:54;1.05;;;1.05;;
10353;SDS011;5223;50.924;13.338;2022-10-17T04:49:22;0.90;;;0.90;;
10353;SDS011;5223;50.924;13.338;2022-10-17T04:51:52;1.20;;;1.20;;
10353;SDS011;5223;50.924;13.338;2022-10-17T04:54:19;1.00;;;1.00;;
10353;SDS011;5223;50.924;13.338;2022-10-17T04:56:45;0.80;;;0.80;;
10353;SDS011;5223;50.924;13.338;2022-10-17T04:59:12;1.10;;;1.00;;
10353;SDS011;5223;50.924;13.338;2022-10-17T05:01:39;0.93;;;0.93;;
10353;SDS011;5223;50.924;13.338;2022-10-17T05:04:06;0.80;;;0.80;;
10353;SDS011;5223;50.924;13.338;2022-10-17T05:06:34;1.00;;;1.00;;
10353;SDS011;5223;50.924;13.338;2022-10-17T05:09:02;0.90;;;0.90;;
10353;SDS011;5223;50.924;13.338;2022-10-17T05:11:29;0.80;;;0.80;;
10353;SDS011;5223;50.924;13.338;2022-10-17T05:13:56;0.60;;;0.60;;
10353;SDS011;5223;50.924;13.338;2022-10-17T05:16:25;1.02;;;1.02;;
10353;SDS011;5223;50.924;13.338;2022-10-17T05:18:53;0.80;;;0.80;;
10353;SDS011;5223;50.924;13.338;2022-10-17T05:21:21;0.80;;;0.80;;
10353;SDS011;5223;50.924;13.338;2022-10-17T05:23:51;0.70;;;0.70;;
10353;SDS011;5223;50.924;13.338;2022-10-17T05:26:18;0.90;;;0.90;;
10353;SDS011;5223;50.924;13.338;2022-10-17T05:28:45;0.80;;;0.80;;
10353;SDS011;5223;50.924;13.338;2022-10-17T05:31:12;1.55;;;1.45;;
10353;SDS011;5223;50.924;13.338;2022-10-17T05:33:39;0.90;;;0.90;;
10353;SDS011;5223;50.924;13.338;2022-10-17T05:36:06;0.85;;;0.85;;
10353;SDS011;5223;50.924;13.338;2022-10-17T05:38:34;1.35;;;1.35;;
10353;SDS011;5223;50.924;13.338;2022-10-17T05:41:03;1.15;;;1.15;;
10353;SDS011;5223;50.924;13.338;2022-10-17T05:43:31;1.58;;;1.58;;
10353;SDS011;5223;50.924;13.338;2022-10-17T05:46:01;0.70;;;0.70;;
10353;SDS011;5223;50.924;13.338;2022-10-17T05:48:28;0.70;;;0.70;;
10353;SDS011;5223;50.924;13.338;2022-10-17T05:50:58;1.35;;;1.25;;
10353;SDS011;5223;50.924;13.338;2022-10-17T05:53:29;0.90;;;0.90;;
10353;SDS011;5223;50.924;13.338;2022-10-17T05:55:56;1.73;;;1.63;;
10353;SDS011;5223;50.924;13.338;2022-10-17T05:58:26;0.88;;;0.88;;
10353;SDS011;5223;50.924;13.338;2022-10-17T06:00:56;0.90;;;0.90;;
10353;SDS011;5223;50.924;13.338;2022-10-17T06:03:23;0.70;;;0.70;;
10353;SDS011;5223;50.924;13.338;2022-10-17T06:05:50;2.15;;;1.10;;
10353;SDS011;5223;50.924;13.338;2022-10-17T06:08:17;0.90;;;0.90;;
10353;SDS011;5223;50.924;13.338;2022-10-17T06:10:45;0.80;;;0.80;;
10353;SDS011;5223;50.924;13.338;2022-10-17T06:13:12;1.38;;;1.10;;
10353;SDS011;5223;50.924;13.338;2022-10-17T06:15:41;1.35;;;1.35;;
10353;SDS011;5223;50.924;13.338;2022-10-17T06:18:08;1.17;;;1.17;;
10353;SDS011;5223;50.924;13.338;2022-10-17T06:20:36;0.70;;;0.70;;
10353;SDS011;5223;50.924;13.338;2022-10-17T06:23:03;1.00;;;1.00;;
10353;SDS011;5223;50.924;13.338;2022-10-17T06:25:31;0.70;;;0.70;;
10353;SDS011;5223;50.924;13.338;2022-10-17T06:28:01;1.00;;;1.00;;
10353;SDS011;5223;50.924;13.338;2022-10-17T06:30:28;2.05;;;1.80;;
10353;SDS011;5223;50.924;13.338;2022-10-17T06:32:57;1.00;;;1.00;;
10353;SDS011;5223;50.924;13.338;2022-10-17T06:35:28;1.00;;;1.00;;
10353;SDS011;5223;50.924;13.338;2022-10-17T06:37:55;1.20;;;1.20;;
10353;SDS011;5223;50.924;13.338;2022-10-17T06:40:22;0.90;;;0.90;;
10353;SDS011;5223;50.924;13.338;2022-10-17T06:42:49;0.77;;;0.77;;
10353;SDS011;5223;50.924;13.338;2022-10-17T06:45:15;1.00;;;1.00;;
10353;SDS011;5223;50.924;13.338;2022-10-17T06:47:42;1.20;;;1.20;;
10353;SDS011;5223;50.924;13.338;2022-10-17T06:50:10;0.95;;;0.95;;
10353;SDS011;5223;50.924;13.338;2022-10-17T06:52:37;0.90;;;0.90;;
10353;SDS011;5223;50.924;13.338;2022-10-17T06:55:04;1.85;;;1.63;;
10353;SDS011;5223;50.924;13.338;2022-10-17T06:57:31;0.98;;;0.98;;
10353;SDS011;5223;50.924;13.338;2022-10-17T06:59:58;0.90;;;0.90;;
10353;SDS011;5223;50.924;13.338;2022-10-17T07:02:25;1.23;;;1.23;;
10353;SDS011;5223;50.924;13.338;2022-10-17T07:04:52;3.78;;;1.70;;
10353;SDS011;5223;50.924;13.338;2022-10-17T07:07:22;0.90;;;0.90;;
10353;SDS011;5223;50.924;13.338;2022-10-17T07:09:50;2.38;;;1.20;;
10353;SDS011;5223;50.924;13.338;2022-10-17T07:12:17;1.00;;;1.00;;
10353;SDS011;5223;50.924;13.338;2022-10-17T07:14:46;1.00;;;1.00;;
10353;SDS011;5223;50.924;13.338;2022-10-17T07:17:14;1.10;;;1.10;;
10353;SDS011;5223;50.924;13.338;2022-10-17T07:19:42;1.27;;;1.27;;
10353;SDS011;5223;50.924;13.338;2022-10-17T07:22:09;1.77;;;1.67;;
10353;SDS011;5223;50.924;13.338;2022-10-17T07:24:37;2.35;;;2.13;;
10353;SDS011;5223;50.924;13.338;2022-10-17T07:27:04;1.13;;;1.13;;
10353;SDS011;5223;50.924;13.338;2022-10-17T07:29:31;1.52;;;1.42;;
10353;SDS011;5223;50.924;13.338;2022-10-17T07:32:01;1.23;;;1.23;;
10353;SDS011;5223;50.924;13.338;2022-10-17T07:34:32;1.40;;;1.30;;
10353;SDS011;5223;50.924;13.338;2022-10-17T07:36:59;1.17;;;1.17;;
10353;SDS011;5223;50.924;13.338;2022-10-17T07:39:26;1.50;;;1.40;;
10353;SDS011;5223;50.924;13.338;2022-10-17T07:41:54;1.38;;;1.38;;
10353;SDS011;5223;50.924;13.338;2022-10-17T07:44:22;1.55;;;1.52;;
10353;SDS011;5223;50.924;13.338;2022-10-17T07:46:49;2.30;;;2.20;;
10353;SDS011;5223;50.924;13.338;2022-10-17T07:49:16;1.10;;;1.10;;
10353;SDS011;5223;50.924;13.338;2022-10-17T07:51:43;1.30;;;1.30;;
10353;SDS011;5223;50.924;13.338;2022-10-17T07:54:09;1.25;;;1.25;;
10353;SDS011;5223;50.924;13.338;2022-10-17T07:56:36;2.05;;;1.98;;
10353;SDS011;5223;50.924;13.338;2022-10-17T07:59:05;1.33;;;1.33;;
10353;SDS011;5223;50.924;13.338;2022-10-17T08:01:31;1.30;;;1.30;;
10353;SDS011;5223;50.924;13.338;2022-10-17T08:03:58;1.42;;;1.40;;
10353;SDS011;5223;50.924;13.338;2022-10-17T08:06:27;1.38;;;1.38;;
10353;SDS011;5223;50.924;13.338;2022-10-17T08:08:54;1.20;;;1.20;;
10353;SDS011;5223;50.924;13.338;2022-10-17T08:11:21;1.60;;;1.60;;
10353;SDS011;5223;50.924;13.338;2022-10-17T08:13:49;1.10;;;1.10;;
10353;SDS011;5223;50.924;13.338;2022-10-17T08:16:20;1.20;;;1.20;;
10353;SDS011;5223;50.924;13.338;2022-10-17T08:18:47;1.25;;;1.25;;
10353;SDS011;5223;50.924;13.338;2022-10-17T08:21:13;1.92;;;1.83;;
10353;SDS011;5223;50.924;13.338;2022-10-17T08:23:40;1.75;;;1.70;;
10353;SDS011;5223;50.924;13.338;2022-10-17T08:26:07;1.85;;;1.75;;
10353;SDS011;5223;50.924;13.338;2022-10-17T08:28:38;1.70;;;1.33;;
10353;SDS011;5223;50.924;13.338;2022-10-17T08:31:06;1.30;;;1.30;;
10353;SDS011;5223;50.924;13.338;2022-10-17T08:33:35;1.50;;;1.50;;
10353;SDS011;5223;50.924;13.338;2022-10-17T08:36:03;1.40;;;1.40;;
10353;SDS011;5223;50.924;13.338;2022-10-17T08:38:31;2.10;;;1.90;;
10353;SDS011;5223;50.924;13.338;2022-10-17T08:41:00;2.17;;;1.80;;
10353;SDS011;5223;50.924;13.338;2022-10-17T08:43:34;2.20;;;2.00;;
10353;SDS011;5223;50.924;13.338;2022-10-17T08:46:12;1.20;;;1.20;;
10353;SDS011;5223;50.924;13.338;2022-10-17T08:48:42;1.38;;;1.38;;
10353;SDS011;5223;50.924;13.338;2022-10-17T08:51:11;1.48;;;1.40;;
10353;SDS011;5223;50.924;13.338;2022-10-17T08:53:42;1.20;;;1.20;;
10353;SDS011;5223;50.924;13.338;2022-10-17T08:56:15;1.10;;;1.10;;
10353;SDS011;5223;50.924;13.338;2022-10-17T08:58:45;1.38;;;1.38;;
10353;SDS011;5223;50.924;13.338;2022-10-17T09:01:22;1.10;;;1.10;;
10353;SDS011;5223;50.924;13.338;2022-10-17T09:06:56;1.20;;;1.20;;
10353;SDS011;5223;50.924;13.338;2022-10-17T09:09:30;1.20;;;1.20;;
10353;SDS011;5223;50.924;13.338;2022-10-17T09:12:10;1.00;;;1.00;;
10353;SDS011;5223;50.924;13.338;2022-10-17T09:14:49;1.23;;;1.23;;
10353;SDS011;5223;50.924;13.338;2022-10-17T09:17:29;2.65;;;2.45;;
10353;SDS011;5223;50.924;13.338;2022-10-17T09:20:05;1.30;;;1.30;;
10353;SDS011;5223;50.924;13.338;2022-10-17T09:22:37;2.22;;;2.00;;
10353;SDS011;5223;50.924;13.338;2022-10-17T09:25:11;1.10;;;1.10;;
10353;SDS011;5223;50.924;13.338;2022-10-17T09:27:42;1.25;;;1.20;;
10353;SDS011;5223;50.924;13.338;2022-10-17T09:30:16;1.00;;;1.00;;
10353;SDS011;5223;50.924;13.338;2022-10-17T09:32:57;1.05;;;1.05;;
10353;SDS011;5223;50.924;13.338;2022-10-17T09:35:40;1.10;;;1.10;;
10353;SDS011;5223;50.924;13.338;2022-10-17T09:38:15;1.10;;;1.10;;
10353;SDS011;5223;50.924;13.338;2022-10-17T09:40:48;1.33;;;1.33;;
10353;SDS011;5223;50.924;13.338;2022-10-17T09:43:21;1.33;;;1.33;;
10353;SDS011;5223;50.924;13.338;2022-10-17T09:45:51;1.02;;;1.02;;
10353;SDS011;5223;50.924;13.338;2022-10-17T09:48:40;1.00;;;1.00;;
10353;SDS011;5223;50.924;13.338;2022-10-17T09:51:26;2.25;;;2.10;;
10353;SDS011;5223;50.924;13.338;2022-10-17T09:53:59;1.00;;;1.00;;
10353;SDS011;5223;50.924;13.338;2022-10-17T09:59:32;1.33;;;1.33;;
10353;SDS011;5223;50.924;13.338;2022-10-17T10:02:13;1.10;;;1.10;;
10353;SDS011;5223;50.924;13.338;2022-10-17T10:04:51;1.50;;;1.50;;
10353;SDS011;5223;50.924;13.338;2022-10-17T10:07:43;1.58;;;1.48;;
10353;SDS011;5223;50.924;13.338;2022-10-17T10:10:30;1.38;;;1.35;;
10353;SDS011;5223;50.924;13.338;2022-10-17T10:13:39;1.27;;;1.27;;
10353;SDS011;5223;50.924;13.338;2022-10-17T10:27:26;1.60;;;1.60;;
10353;SDS011;5223;50.924;13.338;2022-10-17T10:32:46;1.80;;;1.70;;
10353;SDS011;5223;50.924;13.338;2022-10-17T10:39:03;1.65;;;1.55;;
10353;SDS011;5223;50.924;13.338;2022-10-17T10:41:46;9.98;;;6.10;;
10353;SDS011;5223;50.924;13.338;2022-10-17T10:44:19;1.25;;;1.25;;
10353;SDS011;5223;50.924;13.338;2022-10-17T10:47:07;1.60;;;1.50;;
10353;SDS011;5223;50.924;13.338;2022-10-17T10:50:05;1.25;;;1.23;;
10353;SDS011;5223;50.924;13.338;2022-10-17T10:53:13;1.20;;;1.20;;
10353;SDS011;5223;50.924;13.338;2022-10-17T10:56:08;1.33;;;1.25;;
10353;SDS011;5223;50.924;13.338;2022-10-17T10:59:09;2.28;;;1.92;;
10353;SDS011;5223;50.924;13.338;2022-10-17T11:01:53;1.60;;;1.50;;
10353;SDS011;5223;50.924;13.338;2022-10-17T11:04:39;2.05;;;2.00;;
10353;SDS011;5223;50.924;13.338;2022-10-17T11:07:37;1.70;;;1.60;;
10353;SDS011;5223;50.924;13.338;2022-10-17T11:10:29;1.58;;;1.50;;
10353;SDS011;5223;50.924;13.338;2022-10-17T11:13:12;1.48;;;1.42;;
10353;SDS011;5223;50.924;13.338;2022-10-17T11:16:15;2.22;;;2.13;;
10353;SDS011;5223;50.924;13.338;2022-10-17T11:19:06;1.30;;;1.30;;
10353;SDS011;5223;50.924;13.338;2022-10-17T11:22:01;1.20;;;1.20;;
10353;SDS011;5223;50.924;13.338;2022-10-17T11:24:49;1.70;;;1.60;;
10353;SDS011;5223;50.924;13.338;2022-10-17T11:27:51;1.30;;;1.30;;
10353;SDS011;5223;50.924;13.338;2022-10-17T11:30:26;2.03;;;1.92;;
10353;SDS011;5223;50.924;13.338;2022-10-17T11:33:16;2.00;;;1.30;;
10353;SDS011;5223;50.924;13.338;2022-10-17T11:35:52;1.48;;;1.40;;
10353;SDS011;5223;50.924;13.338;2022-10-17T11:38:34;2.42;;;1.88;;
10353;SDS011;5223;50.924;13.338;2022-10-17T11:41:12;1.30;;;1.30;;
10353;SDS011;5223;50.924;13.338;2022-10-17T11:44:02;1.10;;;1.10;;
10353;SDS011;5223;50.924;13.338;2022-10-17T11:46:40;1.30;;;1.30;;
10353;SDS011;5223;50.924;13.338;2022-10-17T11:49:19;1.30;;;1.30;;
10353;SDS011;5223;50.924;13.338;2022-10-17T11:52:08;1.48;;;1.40;;
10353;SDS011;5223;50.924;13.338;2022-10-17T11:54:58;1.17;;;1.17;;
10353;SDS011;5223;50.924;13.338;2022-10-17T11:57:54;1.55;;;1.52;;
10353;SDS011;5223;50.924;13.338;2022-10-17T12:03:51;1.20;;;1.20;;
10353;SDS011;5223;50.924;13.338;2022-10-17T12:07:04;1.33;;;1.33;;
10353;SDS011;5223;50.924;13.338;2022-10-17T12:09:58;1.10;;;1.10;;
10353;SDS011;5223;50.924;13.338;2022-10-17T12:12:40;1.70;;;1.60;;
10353;SDS011;5223;50.924;13.338;2022-10-17T12:15:26;1.35;;;1.35;;
10353;SDS011;5223;50.924;13.338;2022-10-17T12:18:10;1.52;;;1.42;;
10353;SDS011;5223;50.924;13.338;2022-10-17T12:20:55;2.10;;;2.00;;
10353;SDS011;5223;50.924;13.338;2022-10-17T12:23:31;1.92;;;1.83;;
10353;SDS011;5223;50.924;13.338;2022-10-17T12:26:16;1.20;;;1.20;;
10353;SDS011;5223;50.924;13.338;2022-10-17T12:29:24;1.20;;;1.20;;
10353;SDS011;5223;50.924;13.338;2022-10-17T12:32:09;3.17;;;3.00;;
10353;SDS011;5223;50.924;13.338;2022-10-17T12:41:12;1.30;;;1.30;;
10353;SDS011;5223;50.924;13.338;2022-10-17T12:43:48;1.30;;;1.30;;
10353;SDS011;5223;50.924;13.338;2022-10-17T13:02:34;1.90;;;1.80;;
10353;SDS011;5223;50.924;13.338;2022-10-17T13:05:14;1.55;;;1.52;;
10353;SDS011;5223;50.924;13.338;2022-10-17T13:08:14;1.98;;;1.80;;
10353;SDS011;5223;50.924;13.338;2022-10-17T13:11:02;1.83;;;1.73;;
10353;SDS011;5223;50.924;13.338;2022-10-17T13:13:44;1.10;;;1.10;;
10353;SDS011;5223;50.924;13.338;2022-10-17T13:16:39;1.67;;;1.58;;
10353;SDS011;5223;50.924;13.338;2022-10-17T13:19:28;1.65;;;1.63;;
10353;SDS011;5223;50.924;13.338;2022-10-17T13:22:13;1.20;;;1.20;;
10353;SDS011;5223;50.924;13.338;2022-10-17T13:25:03;1.27;;;1.25;;
10353;SDS011;5223;50.924;13.338;2022-10-17T13:27:48;1.20;;;1.20;;
10353;SDS011;5223;50.924;13.338;2022-10-17T13:30:22;1.80;;;1.70;;
10353;SDS011;5223;50.924;13.338;2022-10-17T13:36:16;1.30;;;1.30;;
10353;SDS011;5223;50.924;13.338;2022-10-17T13:39:06;1.95;;;1.77;;
10353;SDS011;5223;50.924;13.338;2022-10-17T13:41:55;1.50;;;1.50;;
10353;SDS011;5223;50.924;13.338;2022-10-17T13:44:34;1.33;;;1.33;;
10353;SDS011;5223;50.924;13.338;2022-10-17T13:47:04;1.23;;;1.23;;
10353;SDS011;5223;50.924;13.338;2022-10-17T13:50:12;1.38;;;1.38;;
10353;SDS011;5223;50.924;13.338;2022-10-17T13:53:19;1.50;;;1.50;;
10353;SDS011;5223;50.924;13.338;2022-10-17T13:56:18;1.40;;;1.40;;
10353;SDS011;5223;50.924;13.338;2022-10-17T13:58:55;1.30;;;1.30;;
10353;SDS011;5223;50.924;13.338;2022-10-17T14:01:36;2.08;;;1.98;;
10353;SDS011;5223;50.924;13.338;2022-10-17T14:04:21;1.50;;;1.50;;
10353;SDS011;5223;50.924;13.338;2022-10-17T14:10:36;1.80;;;1.70;;
10353;SDS011;5223;50.924;13.338;2022-10-17T14:13:20;1.63;;;1.52;;
10353;SDS011;5223;50.924;13.338;2022-10-17T14:16:08;1.55;;;1.55;;
10353;SDS011;5223;50.924;13.338;2022-10-17T14:18:45;1.92;;;1.83;;
10353;SDS011;5223;50.924;13.338;2022-10-17T14:21:46;2.75;;;2.55;;
10353;SDS011;5223;50.924;13.338;2022-10-17T14:24:28;2.47;;;2.38;;
10353;SDS011;5223;50.924;13.338;2022-10-17T14:30:51;1.20;;;1.20;;
10353;SDS011;5223;50.924;13.338;2022-10-17T14:33:23;7.32;;;5.63;;
10353;SDS011;5223;50.924;13.338;2022-10-17T14:36:39;3.13;;;2.90;;
10353;SDS011;5223;50.924;13.338;2022-10-17T14:39:24;5.65;;;3.70;;
10353;SDS011;5223;50.924;13.338;2022-10-17T14:42:25;10.60;;;5.93;;
10353;SDS011;5223;50.924;13.338;2022-10-17T14:45:21;1.90;;;1.80;;
10353;SDS011;5223;50.924;13.338;2022-10-17T14:51:47;6.38;;;3.53;;
10353;SDS011;5223;50.924;13.338;2022-10-17T14:55:19;3.33;;;1.90;;
10353;SDS011;5223;50.924;13.338;2022-10-17T14:58:32;3.53;;;3.00;;
10353;SDS011;5223;50.924;13.338;2022-10-17T15:01:50;2.40;;;2.30;;
10353;SDS011;5223;50.924;13.338;2022-10-17T15:04:43;6.72;;;4.72;;
10353;SDS011;5223;50.924;13.338;2022-10-17T15:07:13;18.48;;;11.20;;
10353;SDS011;5223;50.924;13.338;2022-10-17T15:09:41;6.35;;;3.95;;
10353;SDS011;5223;50.924;13.338;2022-10-17T15:12:12;4.80;;;4.32;;
10353;SDS011;5223;50.924;13.338;2022-10-17T15:14:41;4.57;;;4.18;;
10353;SDS011;5223;50.924;13.338;2022-10-17T15:17:10;5.13;;;4.78;;
10353;SDS011;5223;50.924;13.338;2022-10-17T15:19:39;8.70;;;5.15;;
10353;SDS011;5223;50.924;13.338;2022-10-17T15:22:06;15.15;;;9.07;;
10353;SDS011;5223;50.924;13.338;2022-10-17T15:24:34;3.08;;;2.78;;
10353;SDS011;5223;50.924;13.338;2022-10-17T15:27:01;3.67;;;3.38;;
10353;SDS011;5223;50.924;13.338;2022-10-17T15:29:28;2.10;;;2.00;;
10353;SDS011;5223;50.924;13.338;2022-10-17T15:31:55;3.42;;;3.15;;
10353;SDS011;5223;50.924;13.338;2022-10-17T15:34:22;10.60;;;7.93;;
10353;SDS011;5223;50.924;13.338;2022-10-17T15:36:49;6.35;;;5.72;;
10353;SDS011;5223;50.924;13.338;2022-10-17T15:39:17;3.25;;;2.90;;
10353;SDS011;5223;50.924;13.338;2022-10-17T15:41:46;3.67;;;3.38;;
10353;SDS011;5223;50.924;13.338;2022-10-17T15:44:14;5.75;;;4.40;;
10353;SDS011;5223;50.924;13.338;2022-10-17T15:46:41;15.82;;;6.07;;
10353;SDS011;5223;50.924;13.338;2022-10-17T15:49:09;10.68;;;4.38;;
10353;SDS011;5223;50.924;13.338;2022-10-17T15:51:38;7.22;;;5.43;;
10353;SDS011;5223;50.924;13.338;2022-10-17T15:54:05;8.25;;;6.15;;
10353;SDS011;5223;50.924;13.338;2022-10-17T15:56:33;8.48;;;7.63;;
10353;SDS011;5223;50.924;13.338;2022-10-17T15:59:03;12.35;;;9.30;;
10353;SDS011;5223;50.924;13.338;2022-10-17T16:01:33;19.88;;;10.60;;
10353;SDS011;5223;50.924;13.338;2022-10-17T16:04:00;3.75;;;3.50;;
10353;SDS011;5223;50.924;13.338;2022-10-17T16:06:27;10.88;;;7.60;;
10353;SDS011;5223;50.924;13.338;2022-10-17T16:08:53;11.23;;;7.30;;
10353;SDS011;5223;50.924;13.338;2022-10-17T16:11:23;2.88;;;2.67;;
10353;SDS011;5223;50.924;13.338;2022-10-17T16:13:57;1.45;;;1.45;;
10353;SDS011;5223;50.924;13.338;2022-10-17T16:16:27;2.40;;;2.30;;
10353;SDS011;5223;50.924;13.338;2022-10-17T16:18:55;5.25;;;2.30;;
10353;SDS011;5223;50.924;13.338;2022-10-17T16:21:23;3.47;;;3.17;;
10353;SDS011;5223;50.924;13.338;2022-10-17T16:23:51;2.08;;;2.03;;
10353;SDS011;5223;50.924;13.338;2022-10-17T16:26:19;4.40;;;4.03;;
10353;SDS011;5223;50.924;13.338;2022-10-17T16:28:46;2.85;;;2.42;;
10353;SDS011;5223;50.924;13.338;2022-10-17T16:31:16;4.93;;;4.53;;
10353;SDS011;5223;50.924;13.338;2022-10-17T16:33:47;1.00;;;1.00;;